createdAt,value
2017-12-05T00:00:52.750Z,0.60
2017-12-05T00:03:28.866Z,0.70
2017-12-05T00:06:00.325Z,0.30
2017-12-05T00:08:32.642Z,0.30
2017-12-05T00:11:02.469Z,0.30
2017-12-05T00:13:36.374Z,0.60
2017-12-05T00:16:07.313Z,0.70
2017-12-05T00:18:39.802Z,0.70
2017-12-05T00:21:13.255Z,0.30
2017-12-05T00:23:58.528Z,0.30
2017-12-05T00:26:32.934Z,0.30
2017-12-05T00:29:06.412Z,0.30
2017-12-05T00:31:40.254Z,0.70
2017-12-05T00:34:12.381Z,0.80
2017-12-05T00:36:44.630Z,1.10
2017-12-05T00:39:14.706Z,1.00
2017-12-05T00:41:46.322Z,0.30
2017-12-05T00:44:18.359Z,0.90
2017-12-05T00:46:53.557Z,1.00
2017-12-05T00:49:23.431Z,0.80
2017-12-05T00:51:57.593Z,0.00
2017-12-05T00:54:35.472Z,-0.10
2017-12-05T00:57:07.371Z,0.20
2017-12-05T00:59:38.780Z,0.10
2017-12-05T01:02:09.433Z,-0.10
2017-12-05T01:04:43.256Z,0.40
2017-12-05T01:07:13.859Z,0.90
2017-12-05T01:09:49.367Z,0.90
2017-12-05T01:12:21.401Z,0.80
2017-12-05T01:14:59.443Z,1.00
2017-12-05T01:17:31.949Z,0.30
2017-12-05T01:20:07.701Z,0.20
2017-12-05T01:22:37.440Z,0.70
2017-12-05T01:25:14.134Z,0.80
2017-12-05T01:27:47.775Z,0.70
2017-12-05T01:30:18.043Z,1.10
2017-12-05T01:32:49.594Z,1.30
2017-12-05T01:35:26.467Z,1.40
2017-12-05T01:37:59.390Z,1.20
2017-12-05T01:40:31.610Z,0.30
2017-12-05T01:43:03.309Z,0.70
2017-12-05T01:45:42.170Z,1.20
2017-12-05T01:48:16.502Z,1.20
2017-12-05T01:50:48.277Z,1.20
2017-12-05T01:53:22.319Z,1.10
2017-12-05T01:55:53.611Z,1.10
2017-12-05T01:58:24.732Z,0.70
2017-12-05T02:00:55.259Z,0.50
2017-12-05T02:03:28.392Z,0.90
2017-12-05T02:06:09.200Z,0.90
2017-12-05T02:08:41.788Z,0.80
2017-12-05T02:11:14.660Z,1.20
2017-12-05T02:13:46.156Z,1.20
2017-12-05T02:16:18.107Z,0.80
2017-12-05T02:18:50.428Z,1.10
2017-12-05T02:21:28.810Z,1.20
2017-12-05T02:23:59.619Z,1.10
2017-12-05T02:26:32.794Z,1.20
2017-12-05T02:29:04.469Z,1.30
2017-12-05T02:31:37.541Z,1.40
2017-12-05T02:34:09.653Z,1.50
2017-12-05T02:36:41.245Z,1.30
2017-12-05T02:39:12.391Z,1.60
2017-12-05T02:41:45.777Z,0.60
2017-12-05T02:44:16.930Z,0.50
2017-12-05T02:46:54.581Z,0.60
2017-12-05T02:49:28.006Z,0.80
2017-12-05T02:52:00.834Z,1.10
2017-12-05T02:54:33.381Z,1.20
2017-12-05T02:57:06.861Z,1.50
2017-12-05T02:59:39.328Z,1.70
2017-12-05T03:02:14.329Z,1.80
2017-12-05T03:04:46.120Z,1.90
2017-12-05T03:07:18.979Z,1.90
2017-12-05T03:09:51.652Z,1.40
2017-12-05T03:12:25.361Z,1.50
2017-12-05T03:14:56.456Z,1.50
2017-12-05T03:17:28.499Z,1.80
2017-12-05T03:19:58.790Z,1.80
2017-12-05T03:22:31.337Z,1.10
2017-12-05T03:25:02.110Z,1.10
2017-12-05T03:27:33.605Z,1.60
2017-12-05T03:30:05.920Z,1.30
2017-12-05T03:32:39.905Z,1.30
2017-12-05T03:35:22.370Z,1.30
2017-12-05T03:37:57.379Z,1.80
2017-12-05T03:40:32.509Z,1.80
2017-12-05T03:43:04.268Z,1.80
2017-12-05T03:45:44.969Z,1.80
2017-12-05T03:48:17.820Z,1.30
2017-12-05T03:50:49.580Z,1.60
2017-12-05T03:53:22.680Z,1.50
2017-12-05T03:55:57.790Z,1.30
2017-12-05T03:58:29.248Z,0.90
2017-12-05T04:01:02.152Z,1.00
2017-12-05T04:03:35.353Z,1.60
2017-12-05T04:06:07.160Z,1.20
2017-12-05T04:08:36.684Z,1.30
2017-12-05T04:11:06.231Z,1.20
2017-12-05T04:13:37.268Z,1.60
2017-12-05T04:16:07.378Z,1.90
2017-12-05T04:18:39.968Z,1.90
2017-12-05T04:21:10.351Z,1.90
2017-12-05T04:23:42.230Z,1.40
2017-12-05T04:26:20.451Z,1.70
2017-12-05T04:28:50.361Z,1.90
2017-12-05T04:31:20.469Z,1.80
2017-12-05T04:33:50.351Z,1.70
2017-12-05T04:36:21.095Z,1.70
2017-12-05T04:38:52.532Z,1.60
2017-12-05T04:41:24.708Z,1.70
2017-12-05T04:43:54.707Z,1.70
2017-12-05T04:46:26.469Z,1.50
2017-12-05T04:48:56.227Z,1.50
2017-12-05T04:51:26.489Z,1.60
2017-12-05T04:53:57.431Z,1.80
2017-12-05T04:56:27.393Z,1.80
2017-12-05T04:58:57.284Z,1.40
2017-12-05T05:01:27.076Z,1.60
2017-12-05T05:03:56.636Z,1.70
2017-12-05T05:06:30.368Z,1.70
2017-12-05T05:09:00.339Z,1.60
2017-12-05T05:11:31.904Z,1.10
2017-12-05T05:14:02.728Z,1.00
2017-12-05T05:16:34.458Z,1.40
2017-12-05T05:19:05.294Z,1.20
2017-12-05T05:21:35.749Z,1.30
2017-12-05T05:24:24.312Z,1.50
2017-12-05T05:26:54.203Z,1.50
2017-12-05T05:29:25.441Z,1.60
2017-12-05T05:32:01.626Z,1.70
2017-12-05T05:34:33.090Z,1.70
2017-12-05T05:37:23.195Z,1.30
2017-12-05T05:40:02.862Z,1.30
2017-12-05T05:42:36.289Z,1.30
2017-12-05T05:45:10.558Z,1.40
2017-12-05T05:47:41.344Z,1.30
2017-12-05T05:50:14.017Z,1.50
2017-12-05T05:52:46.465Z,1.50
2017-12-05T05:55:23.375Z,1.80
2017-12-05T05:57:54.861Z,1.70
2017-12-05T06:00:29.176Z,1.80
2017-12-05T06:03:04.350Z,1.90
2017-12-05T06:05:36.260Z,1.90
2017-12-05T06:08:08.684Z,2.00
2017-12-05T06:10:39.982Z,2.00
2017-12-05T06:13:11.714Z,2.00
2017-12-05T06:15:59.175Z,2.10
2017-12-05T06:18:52.648Z,2.10
2017-12-05T06:21:29.386Z,2.00
2017-12-05T06:24:01.637Z,2.10
2017-12-05T06:26:34.804Z,1.90
2017-12-05T06:29:06.760Z,1.40
2017-12-05T06:31:39.315Z,1.30
2017-12-05T06:34:09.107Z,1.20
2017-12-05T06:36:41.779Z,1.10
2017-12-05T06:39:12.037Z,1.70
2017-12-05T06:41:44.413Z,1.40
2017-12-05T06:44:16.846Z,1.40
2017-12-05T06:46:48.229Z,0.90
2017-12-05T06:49:18.684Z,1.10
2017-12-05T06:51:48.116Z,1.50
2017-12-05T06:54:20.180Z,1.70
2017-12-05T06:56:50.275Z,1.60
2017-12-05T06:59:22.287Z,1.80
2017-12-05T07:01:53.174Z,1.70
2017-12-05T07:04:24.132Z,1.70
2017-12-05T07:06:54.456Z,1.80
2017-12-05T07:09:26.072Z,1.80
2017-12-05T07:11:57.211Z,1.80
2017-12-05T07:14:27.446Z,1.80
2017-12-05T07:16:58.064Z,1.80
2017-12-05T07:19:28.671Z,2.00
2017-12-05T07:21:59.665Z,2.20
2017-12-05T07:24:30.375Z,2.20
2017-12-05T07:27:00.558Z,2.40
2017-12-05T07:29:31.395Z,2.40
2017-12-05T07:32:02.283Z,2.70
2017-12-05T07:34:35.387Z,2.60
2017-12-05T07:37:07.065Z,2.60
2017-12-05T07:39:37.242Z,2.90
2017-12-05T07:42:11.201Z,2.70
2017-12-05T07:44:46.038Z,3.00
2017-12-05T07:47:16.214Z,3.40
2017-12-05T07:49:47.099Z,3.20
2017-12-05T07:52:17.577Z,3.50
2017-12-05T07:54:51.692Z,2.90
2017-12-05T07:57:21.780Z,3.00
2017-12-05T07:59:55.276Z,3.00
2017-12-05T08:02:26.456Z,3.00
2017-12-05T08:04:56.268Z,3.50
2017-12-05T08:07:30.542Z,3.60
2017-12-05T08:10:11.277Z,3.60
2017-12-05T08:12:42.636Z,3.70
2017-12-05T08:15:14.287Z,3.60
2017-12-05T08:17:46.575Z,3.70
2017-12-05T08:20:17.317Z,3.70
2017-12-05T08:22:47.891Z,3.50
2017-12-05T08:25:18.127Z,3.50
2017-12-05T08:27:48.472Z,3.60
2017-12-05T08:30:19.418Z,3.60
2017-12-05T08:32:49.425Z,3.40
2017-12-05T08:35:19.090Z,3.70
2017-12-05T08:37:50.380Z,3.60
2017-12-05T08:40:21.700Z,3.90
2017-12-05T08:42:52.480Z,3.90
2017-12-05T08:45:22.632Z,4.30
2017-12-05T08:47:57.776Z,4.60
2017-12-05T08:50:28.200Z,4.80
2017-12-05T08:53:01.174Z,4.90
2017-12-05T08:55:31.382Z,4.90
2017-12-05T08:58:01.047Z,4.90
2017-12-05T09:00:31.111Z,5.20
2017-12-05T09:03:00.976Z,5.30
2017-12-05T09:05:34.681Z,5.10
2017-12-05T09:08:04.643Z,5.20
2017-12-05T09:10:36.204Z,5.10
2017-12-05T09:13:07.155Z,5.30
2017-12-05T09:15:37.205Z,5.20
2017-12-05T09:18:08.240Z,5.40
2017-12-05T09:20:38.455Z,5.30
2017-12-05T09:23:09.685Z,5.10
2017-12-05T09:25:40.244Z,5.50
2017-12-05T09:28:10.314Z,5.50
2017-12-05T09:30:46.474Z,5.80
2017-12-05T09:33:16.375Z,6.00
2017-12-05T09:35:46.086Z,6.20
2017-12-05T09:38:17.625Z,5.90
2017-12-05T09:40:48.416Z,6.00
2017-12-05T09:43:19.761Z,6.00
2017-12-05T09:45:51.080Z,5.80
2017-12-05T09:48:25.306Z,6.00
2017-12-05T09:50:55.098Z,6.00
2017-12-05T09:53:24.700Z,5.80
2017-12-05T09:55:56.140Z,6.20
2017-12-05T09:58:26.400Z,6.20
2017-12-05T10:00:58.730Z,6.10
2017-12-05T10:03:28.230Z,6.30
2017-12-05T10:05:58.064Z,6.40
2017-12-05T10:08:28.723Z,6.40
2017-12-05T10:10:59.041Z,6.40
2017-12-05T10:13:29.145Z,5.90
2017-12-05T10:15:59.676Z,6.20
2017-12-05T10:18:29.255Z,6.40
2017-12-05T10:20:59.449Z,7.10
2017-12-05T10:23:29.695Z,7.10
2017-12-05T10:26:00.951Z,7.60
2017-12-05T10:28:32.727Z,7.60
2017-12-05T10:31:04.335Z,6.80
2017-12-05T10:33:37.063Z,6.80
2017-12-05T10:36:07.056Z,7.30
2017-12-05T10:38:37.197Z,7.60
2017-12-05T10:41:08.592Z,7.50
2017-12-05T10:46:17.759Z,8.00
2017-12-05T10:48:48.308Z,8.00
2017-12-05T10:51:18.200Z,8.00
2017-12-05T10:53:48.315Z,8.00
2017-12-05T10:56:18.450Z,8.30
2017-12-05T10:58:55.631Z,8.20
2017-12-05T11:01:28.476Z,8.20
2017-12-05T11:04:00.452Z,8.20
2017-12-05T11:06:31.614Z,7.90
2017-12-05T11:09:01.400Z,7.80
2017-12-05T11:11:32.101Z,7.90
2017-12-05T11:14:03.429Z,8.00
2017-12-05T11:16:34.525Z,8.00
2017-12-05T11:19:05.124Z,7.80
2017-12-05T11:21:40.417Z,8.20
2017-12-05T11:24:10.367Z,8.20
2017-12-05T11:26:42.367Z,8.40
2017-12-05T11:29:12.180Z,8.90
2017-12-05T11:31:42.140Z,8.50
2017-12-05T11:34:14.741Z,8.70
2017-12-05T11:36:48.130Z,8.20
2017-12-05T11:39:18.316Z,8.10
2017-12-05T11:41:48.795Z,8.00
2017-12-05T11:44:20.460Z,7.80
2017-12-05T11:46:50.278Z,8.30
2017-12-05T11:49:20.744Z,8.40
2017-12-05T11:51:50.452Z,8.30
2017-12-05T11:54:28.602Z,8.80
2017-12-05T11:56:58.156Z,8.80
2017-12-05T11:59:28.337Z,8.70
2017-12-05T12:01:59.163Z,8.10
2017-12-05T12:04:29.416Z,8.20
2017-12-05T12:06:59.462Z,8.20
2017-12-05T12:09:29.357Z,8.80
2017-12-05T12:12:00.626Z,9.00
2017-12-05T12:14:30.332Z,9.00
2017-12-05T12:17:00.239Z,9.10
2017-12-05T12:19:34.241Z,9.40
2017-12-05T12:22:04.822Z,9.20
2017-12-05T12:24:35.051Z,9.10
2017-12-05T12:27:06.795Z,9.50
2017-12-05T12:29:36.723Z,9.60
2017-12-05T12:32:08.096Z,10.00
2017-12-05T12:34:40.318Z,9.50
2017-12-05T12:37:11.287Z,9.50
2017-12-05T22:33:01.770Z,4.60
2017-12-05T22:35:33.552Z,4.20
2017-12-05T22:38:04.698Z,3.90
2017-12-05T22:40:36.402Z,3.50
2017-12-05T22:43:07.633Z,3.50
2017-12-05T22:45:40.177Z,3.80
2017-12-05T22:48:13.422Z,3.90
2017-12-05T22:50:44.604Z,3.90
2017-12-05T22:53:16.743Z,3.80
2017-12-05T22:55:48.362Z,3.40
2017-12-05T22:58:20.458Z,3.00
2017-12-05T23:01:03.264Z,3.00
2017-12-05T23:03:36.428Z,2.60
2017-12-05T23:06:14.969Z,3.20
2017-12-05T23:08:53.004Z,3.50
2017-12-05T23:11:28.134Z,3.50
2017-12-05T23:14:00.649Z,3.30
2017-12-05T23:16:32.198Z,3.50
2017-12-05T23:19:07.625Z,3.40
2017-12-05T23:21:42.358Z,3.40
2017-12-05T23:24:17.763Z,3.30
2017-12-05T23:26:55.607Z,3.20
2017-12-05T23:29:35.552Z,3.20
2017-12-05T23:32:08.438Z,3.60
2017-12-05T23:34:45.920Z,3.70
2017-12-05T23:37:27.467Z,3.70
2017-12-05T23:40:00.420Z,3.70
2017-12-05T23:42:37.180Z,3.40
2017-12-05T23:45:13.647Z,3.00
